MAS2742 WMKK-WBGB
Flight info
| Callsign | MAS2742 |
|---|---|
| Flight time | 1h 53m |
| Altitude | 37000 |
| Route | KIMAT1D KIMAT Y344 VPK M761 SABIP M646 KAMIN W447 ADGAB ADGAB1E |
| Aircraft | B738/M-SDE2E3FGHIRWXY/LB1 |
Departure
| Time | 2026-04-24 00:33 |
|---|---|
| Airport | Kuala Lumpur International Airport (WMKK) |
Arrival
| Time | 2026-04-24 02:27 |
|---|---|
| Airport | Bintulu Airport (WBGB) |
| Time | Latitude | Longitude | Altitude | Speed | Heading |
|---|---|---|---|---|---|
| 2026-04-23 23:51 | 2.75354 | 101.70770 | 81 ft | 0 kts | 326° |
| 2026-04-24 00:14 | 2.75349 | 101.70773 | 81 ft | 1 kts | 326° |
| 2026-04-24 00:14 | 2.75340 | 101.70779 | 81 ft | 2 kts | 321° |
| 2026-04-24 00:15 | 2.75330 | 101.70789 | 81 ft | 2 kts | 308° |
| 2026-04-24 00:15 | 2.75322 | 101.70802 | 81 ft | 2 kts | 296° |
| 2026-04-24 00:15 | 2.75316 | 101.70815 | 80 ft | 2 kts | 285° |
| 2026-04-24 00:15 | 2.75313 | 101.70830 | 80 ft | 2 kts | 275° |
| 2026-04-24 00:16 | 2.75313 | 101.70845 | 80 ft | 2 kts | 263° |
| 2026-04-24 00:16 | 2.75316 | 101.70860 | 80 ft | 2 kts | 252° |
| 2026-04-24 00:16 | 2.75322 | 101.70874 | 79 ft | 2 kts | 240° |
| 2026-04-24 00:16 | 2.75326 | 101.70880 | 79 ft | 1 kts | 234° |
| 2026-04-24 00:17 | 2.75327 | 101.70882 | 79 ft | 0 kts | 236° |
| 2026-04-24 00:22 | 2.75315 | 101.70864 | 80 ft | 6 kts | 238° |
| 2026-04-24 00:22 | 2.75279 | 101.70805 | 80 ft | 13 kts | 236° |
| 2026-04-24 00:22 | 2.75225 | 101.70726 | 80 ft | 9 kts | 215° |
| 2026-04-24 00:22 | 2.75155 | 101.70727 | 79 ft | 11 kts | 148° |
| 2026-04-24 00:23 | 2.75087 | 101.70771 | 78 ft | 12 kts | 147° |
| 2026-04-24 00:23 | 2.75011 | 101.70818 | 77 ft | 13 kts | 156° |
| 2026-04-24 00:23 | 2.74932 | 101.70782 | 76 ft | 14 kts | 234° |
| 2026-04-24 00:23 | 2.74876 | 101.70695 | 75 ft | 15 kts | 238° |
| 2026-04-24 00:24 | 2.74816 | 101.70604 | 73 ft | 15 kts | 243° |
| 2026-04-24 00:24 | 2.74753 | 101.70509 | 72 ft | 16 kts | 232° |
| 2026-04-24 00:24 | 2.74687 | 101.70409 | 71 ft | 17 kts | 240° |
| 2026-04-24 00:24 | 2.74612 | 101.70304 | 69 ft | 19 kts | 234° |
| 2026-04-24 00:25 | 2.74537 | 101.70188 | 68 ft | 20 kts | 238° |
| 2026-04-24 00:25 | 2.74448 | 101.70073 | 65 ft | 21 kts | 236° |
| 2026-04-24 00:25 | 2.74326 | 101.70025 | 62 ft | 20 kts | 154° |
| 2026-04-24 00:25 | 2.74208 | 101.70100 | 63 ft | 19 kts | 147° |
| 2026-04-24 00:26 | 2.74093 | 101.70175 | 63 ft | 19 kts | 143° |
| 2026-04-24 00:26 | 2.73978 | 101.70254 | 63 ft | 20 kts | 149° |
| 2026-04-24 00:26 | 2.73861 | 101.70331 | 64 ft | 19 kts | 142° |
| 2026-04-24 00:26 | 2.73756 | 101.70406 | 67 ft | 17 kts | 146° |
| 2026-04-24 00:27 | 2.73665 | 101.70469 | 69 ft | 14 kts | 146° |
| 2026-04-24 00:27 | 2.73590 | 101.70520 | 73 ft | 10 kts | 144° |
| 2026-04-24 00:27 | 2.73537 | 101.70555 | 76 ft | 9 kts | 146° |
| 2026-04-24 00:27 | 2.73437 | 101.70623 | 81 ft | 21 kts | 146° |
| 2026-04-24 00:28 | 2.73321 | 101.70701 | 84 ft | 18 kts | 146° |
| 2026-04-24 00:28 | 2.73210 | 101.70776 | 83 ft | 19 kts | 146° |
| 2026-04-24 00:28 | 2.73093 | 101.70852 | 79 ft | 20 kts | 146° |
| 2026-04-24 00:28 | 2.72964 | 101.70937 | 72 ft | 24 kts | 146° |
| 2026-04-24 00:29 | 2.72812 | 101.71034 | 63 ft | 27 kts | 146° |
| 2026-04-24 00:29 | 2.72649 | 101.71147 | 57 ft | 29 kts | 146° |
| 2026-04-24 00:29 | 2.72490 | 101.71252 | 58 ft | 16 kts | 146° |
| 2026-04-24 00:29 | 2.72396 | 101.71317 | 58 ft | 18 kts | 146° |
| 2026-04-24 00:30 | 2.72281 | 101.71397 | 58 ft | 20 kts | 147° |
| 2026-04-24 00:30 | 2.72162 | 101.71474 | 57 ft | 20 kts | 144° |
| 2026-04-24 00:30 | 2.72045 | 101.71558 | 57 ft | 20 kts | 147° |
| 2026-04-24 00:30 | 2.71922 | 101.71635 | 57 ft | 20 kts | 147° |
| 2026-04-24 00:31 | 2.71807 | 101.71710 | 58 ft | 19 kts | 144° |
| 2026-04-24 00:31 | 2.71689 | 101.71741 | 57 ft | 18 kts | 211° |
| 2026-04-24 00:31 | 2.71618 | 101.71639 | 54 ft | 14 kts | 263° |
| 2026-04-24 00:31 | 2.71653 | 101.71590 | 53 ft | 0 kts | 325° |
| 2026-04-24 00:32 | 2.71671 | 101.71577 | 53 ft | 16 kts | 325° |
| 2026-04-24 00:32 | 2.71998 | 101.71361 | 52 ft | 99 kts | 327° |
| 2026-04-24 00:33 | 2.72794 | 101.70828 | 64 ft | 172 kts | 327° |
| 2026-04-24 00:33 | 2.73841 | 101.70064 | 576 ft | 199 kts | 323° |
| 2026-04-24 00:33 | 2.74963 | 101.69104 | 1172 ft | 230 kts | 319° |
| 2026-04-24 00:33 | 2.76209 | 101.67924 | 1744 ft | 262 kts | 315° |
| 2026-04-24 00:34 | 2.77495 | 101.66538 | 2442 ft | 280 kts | 314° |
| 2026-04-24 00:34 | 2.78797 | 101.65072 | 3305 ft | 290 kts | 311° |
| 2026-04-24 00:34 | 2.80153 | 101.63550 | 4319 ft | 292 kts | 313° |
| 2026-04-24 00:34 | 2.81495 | 101.62045 | 4960 ft | 289 kts | 312° |
| 2026-04-24 00:35 | 2.82809 | 101.60531 | 5017 ft | 282 kts | 311° |
| 2026-04-24 00:35 | 2.84060 | 101.59059 | 5010 ft | 276 kts | 311° |
| 2026-04-24 00:35 | 2.85298 | 101.57588 | 5009 ft | 277 kts | 310° |
| 2026-04-24 00:35 | 2.86623 | 101.56166 | 5007 ft | 276 kts | 320° |
| 2026-04-24 00:36 | 2.88271 | 101.55211 | 5010 ft | 276 kts | 344° |
| 2026-04-24 00:36 | 2.90177 | 101.54883 | 5088 ft | 281 kts | 354° |
| 2026-04-24 00:36 | 2.92170 | 101.54685 | 5876 ft | 288 kts | 354° |
| 2026-04-24 00:36 | 2.94128 | 101.54463 | 7006 ft | 284 kts | 354° |
| 2026-04-24 00:37 | 2.96102 | 101.54231 | 7891 ft | 288 kts | 356° |
| 2026-04-24 00:37 | 2.98106 | 101.54309 | 8695 ft | 293 kts | 13° |
| 2026-04-24 00:37 | 2.99953 | 101.55126 | 9495 ft | 295 kts | 38° |
| 2026-04-24 00:37 | 3.01373 | 101.56602 | 10309 ft | 297 kts | 56° |
| 2026-04-24 00:38 | 3.02559 | 101.58340 | 10870 ft | 311 kts | 57° |
| 2026-04-24 00:38 | 3.03800 | 101.60187 | 11349 ft | 327 kts | 57° |
| 2026-04-24 00:38 | 3.05107 | 101.62116 | 11803 ft | 343 kts | 57° |
| 2026-04-24 00:38 | 3.06474 | 101.64122 | 12454 ft | 351 kts | 57° |
| 2026-04-24 00:39 | 3.07845 | 101.66135 | 13165 ft | 356 kts | 57° |
| 2026-04-24 00:39 | 3.09246 | 101.68194 | 13909 ft | 360 kts | 57° |
| 2026-04-24 00:39 | 3.10659 | 101.70277 | 14616 ft | 363 kts | 57° |
| 2026-04-24 00:39 | 3.12083 | 101.72375 | 15318 ft | 367 kts | 57° |
| 2026-04-24 00:40 | 3.13507 | 101.74474 | 15979 ft | 370 kts | 58° |
| 2026-04-24 00:40 | 3.14848 | 101.76677 | 16590 ft | 373 kts | 68° |
| 2026-04-24 00:40 | 3.15564 | 101.79149 | 17243 ft | 373 kts | 81° |
| 2026-04-24 00:40 | 3.15902 | 101.81728 | 17878 ft | 376 kts | 85° |
| 2026-04-24 00:41 | 3.16136 | 101.84350 | 18504 ft | 379 kts | 86° |
| 2026-04-24 00:41 | 3.16382 | 101.86968 | 19100 ft | 383 kts | 85° |
| 2026-04-24 00:41 | 3.16678 | 101.89605 | 19755 ft | 384 kts | 84° |
| 2026-04-24 00:41 | 3.17020 | 101.92268 | 20312 ft | 388 kts | 83° |
| 2026-04-24 00:42 | 3.17390 | 101.94948 | 20886 ft | 391 kts | 83° |
| 2026-04-24 00:42 | 3.17777 | 101.97644 | 21420 ft | 394 kts | 82° |
| 2026-04-24 00:42 | 3.18172 | 102.00356 | 21937 ft | 398 kts | 82° |
| 2026-04-24 00:42 | 3.18575 | 102.03105 | 22440 ft | 401 kts | 82° |
| 2026-04-24 00:43 | 3.18983 | 102.05880 | 22946 ft | 404 kts | 82° |
| 2026-04-24 00:43 | 3.19390 | 102.08655 | 23413 ft | 408 kts | 82° |
| 2026-04-24 00:43 | 3.19804 | 102.11482 | 23860 ft | 412 kts | 82° |
| 2026-04-24 00:43 | 3.20221 | 102.14326 | 24354 ft | 414 kts | 82° |
| 2026-04-24 00:44 | 3.20637 | 102.17162 | 24791 ft | 418 kts | 82° |
| 2026-04-24 00:44 | 3.21061 | 102.20043 | 25260 ft | 420 kts | 82° |
| 2026-04-24 00:44 | 3.21487 | 102.22952 | 25693 ft | 423 kts | 82° |
| 2026-04-24 00:44 | 3.21913 | 102.25854 | 26081 ft | 427 kts | 82° |
| 2026-04-24 00:45 | 3.22342 | 102.28791 | 26480 ft | 431 kts | 83° |
| 2026-04-24 00:45 | 3.22776 | 102.31766 | 26885 ft | 434 kts | 83° |
| 2026-04-24 00:45 | 3.23215 | 102.34776 | 27295 ft | 436 kts | 83° |
| 2026-04-24 00:45 | 3.23650 | 102.37759 | 27683 ft | 439 kts | 83° |
| 2026-04-24 00:46 | 3.24095 | 102.40802 | 28075 ft | 441 kts | 83° |
| 2026-04-24 00:46 | 3.24534 | 102.43815 | 28439 ft | 444 kts | 83° |
| 2026-04-24 00:46 | 3.24985 | 102.46900 | 28833 ft | 446 kts | 83° |
| 2026-04-24 00:46 | 3.25431 | 102.49954 | 29203 ft | 449 kts | 83° |
| 2026-04-24 00:47 | 3.25885 | 102.53064 | 29583 ft | 451 kts | 83° |
| 2026-04-24 00:47 | 3.26335 | 102.56150 | 29965 ft | 453 kts | 83° |
| 2026-04-24 00:47 | 3.26792 | 102.59270 | 30528 ft | 451 kts | 83° |
| 2026-04-24 00:47 | 3.27243 | 102.62354 | 31157 ft | 446 kts | 83° |
| 2026-04-24 00:48 | 3.27690 | 102.65414 | 31703 ft | 444 kts | 83° |
| 2026-04-24 00:48 | 3.28133 | 102.68449 | 32196 ft | 442 kts | 83° |
| 2026-04-24 00:48 | 3.28573 | 102.71474 | 32656 ft | 441 kts | 82° |
| 2026-04-24 00:48 | 3.29013 | 102.74506 | 33192 ft | 439 kts | 82° |
| 2026-04-24 00:49 | 3.29450 | 102.77511 | 33686 ft | 438 kts | 82° |
| 2026-04-24 00:49 | 3.29881 | 102.80492 | 34142 ft | 437 kts | 82° |
| 2026-04-24 00:49 | 3.30313 | 102.83475 | 34610 ft | 435 kts | 82° |
| 2026-04-24 00:49 | 3.30751 | 102.86492 | 35107 ft | 433 kts | 82° |
| 2026-04-24 00:50 | 3.31178 | 102.89429 | 35510 ft | 433 kts | 82° |
| 2026-04-24 00:50 | 3.31612 | 102.92424 | 35922 ft | 432 kts | 82° |
| 2026-04-24 00:50 | 3.32044 | 102.95408 | 36299 ft | 432 kts | 82° |
| 2026-04-24 00:50 | 3.32481 | 102.98425 | 36639 ft | 432 kts | 82° |
| 2026-04-24 00:51 | 3.32914 | 103.01420 | 36867 ft | 434 kts | 82° |
| 2026-04-24 00:51 | 3.33346 | 103.04406 | 36857 ft | 436 kts | 82° |
| 2026-04-24 00:51 | 3.34207 | 103.10343 | 36855 ft | 431 kts | 82° |
| 2026-04-24 00:52 | 3.35074 | 103.16303 | 36855 ft | 432 kts | 82° |
| 2026-04-24 00:52 | 3.35936 | 103.22244 | 36851 ft | 432 kts | 82° |
| 2026-04-24 00:53 | 3.36796 | 103.28175 | 36850 ft | 432 kts | 82° |
| 2026-04-24 00:53 | 3.37653 | 103.34101 | 36849 ft | 432 kts | 82° |
| 2026-04-24 00:54 | 3.38356 | 103.40067 | 36847 ft | 431 kts | 88° |
| 2026-04-24 00:54 | 3.37757 | 103.46004 | 36853 ft | 432 kts | 102° |
| 2026-04-24 00:55 | 3.36233 | 103.51834 | 36852 ft | 432 kts | 105° |
| 2026-04-24 00:55 | 3.34535 | 103.57585 | 36850 ft | 431 kts | 106° |
| 2026-04-24 00:56 | 3.32840 | 103.63336 | 36850 ft | 431 kts | 105° |
| 2026-04-24 00:56 | 3.31173 | 103.69102 | 36848 ft | 431 kts | 105° |
| 2026-04-24 00:57 | 3.29527 | 103.74869 | 36847 ft | 431 kts | 105° |
| 2026-04-24 00:58 | 3.27079 | 103.83495 | 36847 ft | 432 kts | 105° |
| 2026-04-24 00:58 | 3.25440 | 103.89281 | 36845 ft | 431 kts | 105° |
| 2026-04-24 00:59 | 3.23817 | 103.95017 | 36846 ft | 431 kts | 105° |
| 2026-04-24 00:59 | 3.22180 | 104.00803 | 36850 ft | 431 kts | 105° |
| 2026-04-24 01:00 | 3.20548 | 104.06560 | 36856 ft | 432 kts | 105° |
| 2026-04-24 01:00 | 3.18917 | 104.12314 | 36863 ft | 432 kts | 105° |
| 2026-04-24 01:01 | 3.17281 | 104.18103 | 36865 ft | 431 kts | 105° |
| 2026-04-24 01:01 | 3.15693 | 104.23898 | 36864 ft | 431 kts | 104° |
| 2026-04-24 01:02 | 3.14128 | 104.29682 | 36863 ft | 430 kts | 104° |
| 2026-04-24 01:02 | 3.12561 | 104.35464 | 36864 ft | 431 kts | 104° |
| 2026-04-24 01:03 | 3.10988 | 104.41211 | 36865 ft | 430 kts | 104° |
| 2026-04-24 01:03 | 3.09397 | 104.46990 | 36864 ft | 431 kts | 104° |
| 2026-04-24 01:04 | 3.07803 | 104.52773 | 36865 ft | 431 kts | 104° |
| 2026-04-24 01:04 | 3.06205 | 104.58577 | 36864 ft | 430 kts | 104° |
| 2026-04-24 01:05 | 3.04618 | 104.64338 | 36854 ft | 431 kts | 104° |
| 2026-04-24 01:05 | 3.03031 | 104.70106 | 36844 ft | 430 kts | 104° |
| 2026-04-24 01:06 | 3.01445 | 104.75859 | 36844 ft | 430 kts | 104° |
| 2026-04-24 01:06 | 2.99853 | 104.81618 | 36843 ft | 430 kts | 104° |
| 2026-04-24 01:07 | 2.98259 | 104.87388 | 36843 ft | 431 kts | 104° |
| 2026-04-24 01:07 | 2.96658 | 104.93185 | 36842 ft | 431 kts | 104° |
| 2026-04-24 01:08 | 2.95073 | 104.98923 | 36843 ft | 430 kts | 104° |
| 2026-04-24 01:08 | 2.93483 | 105.04689 | 36842 ft | 430 kts | 104° |
| 2026-04-24 01:09 | 2.91895 | 105.10445 | 36843 ft | 429 kts | 104° |
| 2026-04-24 01:09 | 2.90314 | 105.16166 | 36842 ft | 429 kts | 104° |
| 2026-04-24 01:10 | 2.88723 | 105.21931 | 36843 ft | 430 kts | 104° |
| 2026-04-24 01:10 | 2.87135 | 105.27672 | 36843 ft | 429 kts | 104° |
| 2026-04-24 01:11 | 2.85536 | 105.33465 | 36846 ft | 430 kts | 104° |
| 2026-04-24 01:11 | 2.83955 | 105.39199 | 36851 ft | 428 kts | 104° |
| 2026-04-24 01:12 | 2.82366 | 105.44950 | 36851 ft | 429 kts | 104° |
| 2026-04-24 01:12 | 2.80777 | 105.50689 | 36851 ft | 428 kts | 104° |
| 2026-04-24 01:13 | 2.79192 | 105.56422 | 36852 ft | 429 kts | 104° |
| 2026-04-24 01:13 | 2.77598 | 105.62194 | 36852 ft | 429 kts | 104° |
| 2026-04-24 01:14 | 2.76020 | 105.67909 | 36857 ft | 428 kts | 104° |
| 2026-04-24 01:14 | 2.74431 | 105.73661 | 36860 ft | 427 kts | 104° |
| 2026-04-24 01:15 | 2.72862 | 105.79344 | 36862 ft | 427 kts | 105° |
| 2026-04-24 01:15 | 2.71267 | 105.85103 | 36863 ft | 427 kts | 105° |
| 2026-04-24 01:16 | 2.69685 | 105.90825 | 36864 ft | 427 kts | 104° |
| 2026-04-24 01:16 | 2.68116 | 105.96507 | 36862 ft | 427 kts | 104° |
| 2026-04-24 01:17 | 2.66534 | 106.02238 | 36861 ft | 428 kts | 104° |
| 2026-04-24 01:17 | 2.64950 | 106.07968 | 36863 ft | 427 kts | 105° |
| 2026-04-24 01:18 | 2.63370 | 106.13677 | 36863 ft | 427 kts | 105° |
| 2026-04-24 01:18 | 2.61785 | 106.19399 | 36863 ft | 427 kts | 105° |
| 2026-04-24 01:19 | 2.60206 | 106.25091 | 36863 ft | 427 kts | 105° |
| 2026-04-24 01:19 | 2.58618 | 106.30815 | 36865 ft | 427 kts | 105° |
| 2026-04-24 01:20 | 2.57035 | 106.36526 | 36863 ft | 427 kts | 105° |
| 2026-04-24 01:20 | 2.55460 | 106.42220 | 36863 ft | 426 kts | 105° |
| 2026-04-24 01:21 | 2.53899 | 106.47926 | 36859 ft | 426 kts | 104° |
| 2026-04-24 01:21 | 2.52337 | 106.53648 | 36852 ft | 426 kts | 105° |
| 2026-04-24 01:22 | 2.50771 | 106.59351 | 36851 ft | 426 kts | 105° |
| 2026-04-24 01:22 | 2.49194 | 106.65080 | 36850 ft | 426 kts | 105° |
| 2026-04-24 01:23 | 2.47620 | 106.70789 | 36849 ft | 425 kts | 105° |
| 2026-04-24 01:23 | 2.46050 | 106.76489 | 36850 ft | 426 kts | 105° |
| 2026-04-24 01:24 | 2.44477 | 106.82194 | 36850 ft | 425 kts | 105° |
| 2026-04-24 01:24 | 2.42907 | 106.87892 | 36849 ft | 425 kts | 105° |
| 2026-04-24 01:25 | 2.41338 | 106.93589 | 36850 ft | 425 kts | 105° |
| 2026-04-24 01:25 | 2.39767 | 106.99287 | 36850 ft | 425 kts | 105° |
| 2026-04-24 01:26 | 2.38197 | 107.04979 | 36851 ft | 425 kts | 105° |
| 2026-04-24 01:26 | 2.36632 | 107.10651 | 36852 ft | 426 kts | 105° |
| 2026-04-24 01:27 | 2.35049 | 107.16366 | 36856 ft | 424 kts | 105° |
| 2026-04-24 01:27 | 2.33478 | 107.22029 | 36862 ft | 424 kts | 105° |
| 2026-04-24 01:28 | 2.31899 | 107.27718 | 36863 ft | 425 kts | 105° |
| 2026-04-24 01:28 | 2.30326 | 107.33379 | 36863 ft | 425 kts | 105° |
| 2026-04-24 01:29 | 2.28741 | 107.39080 | 36863 ft | 425 kts | 105° |
| 2026-04-24 01:29 | 2.27167 | 107.44744 | 36863 ft | 425 kts | 105° |
| 2026-04-24 01:30 | 2.26215 | 107.50542 | 36867 ft | 424 kts | 85° |
| 2026-04-24 01:30 | 2.27342 | 107.56325 | 36865 ft | 426 kts | 77° |
| 2026-04-24 01:31 | 2.28834 | 107.62046 | 36865 ft | 426 kts | 76° |
| 2026-04-24 01:31 | 2.30269 | 107.67783 | 36864 ft | 425 kts | 77° |
| 2026-04-24 01:32 | 2.31615 | 107.73553 | 36863 ft | 425 kts | 78° |
| 2026-04-24 01:32 | 2.32902 | 107.79285 | 36863 ft | 426 kts | 78° |
| 2026-04-24 01:33 | 2.34185 | 107.85072 | 36863 ft | 425 kts | 78° |
| 2026-04-24 01:33 | 2.35458 | 107.90842 | 36863 ft | 425 kts | 78° |
| 2026-04-24 01:34 | 2.36726 | 107.96604 | 36863 ft | 426 kts | 78° |
| 2026-04-24 01:34 | 2.37994 | 108.02364 | 36862 ft | 425 kts | 78° |
| 2026-04-24 01:35 | 2.39268 | 108.08140 | 36863 ft | 425 kts | 78° |
| 2026-04-24 01:35 | 2.40539 | 108.13910 | 36863 ft | 424 kts | 78° |
| 2026-04-24 01:36 | 2.41805 | 108.19666 | 36864 ft | 424 kts | 78° |
| 2026-04-24 01:36 | 2.43078 | 108.25449 | 36868 ft | 423 kts | 78° |
| 2026-04-24 01:37 | 2.44346 | 108.31205 | 36871 ft | 424 kts | 78° |
| 2026-04-24 01:37 | 2.45608 | 108.36931 | 36876 ft | 424 kts | 78° |
| 2026-04-24 01:38 | 2.46880 | 108.42707 | 36875 ft | 424 kts | 78° |
| 2026-04-24 01:38 | 2.48146 | 108.48456 | 36871 ft | 423 kts | 78° |
| 2026-04-24 01:39 | 2.49409 | 108.54185 | 36878 ft | 422 kts | 78° |
| 2026-04-24 01:39 | 2.50676 | 108.59930 | 36878 ft | 422 kts | 78° |
| 2026-04-24 01:40 | 2.51932 | 108.65653 | 36873 ft | 422 kts | 78° |
| 2026-04-24 01:40 | 2.53191 | 108.71394 | 36869 ft | 423 kts | 78° |
| 2026-04-24 01:41 | 2.54442 | 108.77106 | 36872 ft | 422 kts | 78° |
| 2026-04-24 01:41 | 2.55702 | 108.82847 | 36873 ft | 422 kts | 78° |
| 2026-04-24 01:42 | 2.56961 | 108.88571 | 36870 ft | 422 kts | 78° |
| 2026-04-24 01:42 | 2.58187 | 108.94296 | 36864 ft | 421 kts | 79° |
| 2026-04-24 01:43 | 2.59074 | 109.00066 | 36865 ft | 421 kts | 82° |
| 2026-04-24 01:43 | 2.59833 | 109.05878 | 36864 ft | 422 kts | 82° |
| 2026-04-24 01:44 | 2.60606 | 109.11700 | 36865 ft | 422 kts | 82° |
| 2026-04-24 01:44 | 2.61405 | 109.17503 | 36862 ft | 421 kts | 82° |
| 2026-04-24 01:45 | 2.62213 | 109.23266 | 36863 ft | 421 kts | 82° |
| 2026-04-24 01:45 | 2.63035 | 109.29055 | 36863 ft | 420 kts | 82° |
| 2026-04-24 01:46 | 2.63858 | 109.34849 | 36862 ft | 422 kts | 82° |
| 2026-04-24 01:46 | 2.64678 | 109.40640 | 36864 ft | 421 kts | 82° |
| 2026-04-24 01:47 | 2.65499 | 109.46435 | 36863 ft | 422 kts | 82° |
| 2026-04-24 01:47 | 2.66325 | 109.52253 | 36863 ft | 422 kts | 82° |
| 2026-04-24 01:48 | 2.67141 | 109.58009 | 36863 ft | 420 kts | 82° |
| 2026-04-24 01:48 | 2.67963 | 109.63801 | 36863 ft | 420 kts | 82° |
| 2026-04-24 01:49 | 2.68784 | 109.69584 | 36863 ft | 420 kts | 82° |
| 2026-04-24 01:49 | 2.69602 | 109.75344 | 36864 ft | 422 kts | 82° |
| 2026-04-24 01:50 | 2.70423 | 109.81154 | 36868 ft | 421 kts | 82° |
| 2026-04-24 01:50 | 2.71244 | 109.86942 | 36878 ft | 421 kts | 82° |
| 2026-04-24 01:51 | 2.72070 | 109.92744 | 36880 ft | 421 kts | 82° |
| 2026-04-24 01:51 | 2.72880 | 109.98483 | 36883 ft | 420 kts | 82° |
| 2026-04-24 01:52 | 2.73694 | 110.04253 | 36884 ft | 421 kts | 82° |
| 2026-04-24 01:52 | 2.74518 | 110.10056 | 36884 ft | 421 kts | 82° |
| 2026-04-24 01:53 | 2.75332 | 110.15809 | 36885 ft | 421 kts | 82° |
| 2026-04-24 01:53 | 2.76157 | 110.21627 | 36883 ft | 420 kts | 82° |
| 2026-04-24 01:54 | 2.76972 | 110.27396 | 36886 ft | 420 kts | 82° |
| 2026-04-24 01:54 | 2.77784 | 110.33168 | 36883 ft | 419 kts | 82° |
| 2026-04-24 01:55 | 2.78600 | 110.38950 | 36885 ft | 422 kts | 82° |
| 2026-04-24 01:55 | 2.79414 | 110.44723 | 36884 ft | 421 kts | 82° |
| 2026-04-24 01:56 | 2.80238 | 110.50527 | 36885 ft | 420 kts | 82° |
| 2026-04-24 01:56 | 2.81051 | 110.56282 | 36885 ft | 420 kts | 82° |
| 2026-04-24 01:57 | 2.81860 | 110.62042 | 36884 ft | 419 kts | 82° |
| 2026-04-24 01:57 | 2.82675 | 110.67805 | 36885 ft | 419 kts | 82° |
| 2026-04-24 01:58 | 2.83490 | 110.73577 | 36884 ft | 420 kts | 82° |
| 2026-04-24 01:58 | 2.84306 | 110.79388 | 36881 ft | 421 kts | 82° |
| 2026-04-24 01:59 | 2.85125 | 110.85184 | 36879 ft | 419 kts | 82° |
| 2026-04-24 01:59 | 2.85944 | 110.90980 | 36883 ft | 421 kts | 83° |
| 2026-04-24 02:00 | 2.86757 | 110.96759 | 36884 ft | 419 kts | 82° |
| 2026-04-24 02:00 | 2.87569 | 111.02522 | 36884 ft | 420 kts | 82° |
| 2026-04-24 02:01 | 2.88376 | 111.08273 | 36884 ft | 420 kts | 82° |
| 2026-04-24 02:01 | 2.89186 | 111.14078 | 36850 ft | 421 kts | 82° |
| 2026-04-24 02:01 | 2.89594 | 111.16962 | 36550 ft | 419 kts | 82° |
| 2026-04-24 02:02 | 2.90007 | 111.19870 | 36092 ft | 424 kts | 82° |
| 2026-04-24 02:02 | 2.90416 | 111.22800 | 35503 ft | 437 kts | 82° |
| 2026-04-24 02:02 | 2.90841 | 111.25822 | 34900 ft | 436 kts | 82° |
| 2026-04-24 02:02 | 2.91265 | 111.28819 | 34401 ft | 430 kts | 82° |
| 2026-04-24 02:03 | 2.92088 | 111.34634 | 33386 ft | 419 kts | 82° |
| 2026-04-24 02:03 | 2.92490 | 111.37490 | 32873 ft | 414 kts | 82° |
| 2026-04-24 02:03 | 2.92882 | 111.40295 | 32380 ft | 409 kts | 82° |
| 2026-04-24 02:04 | 2.93274 | 111.43105 | 31893 ft | 404 kts | 82° |
| 2026-04-24 02:04 | 2.93662 | 111.45875 | 31403 ft | 400 kts | 83° |
| 2026-04-24 02:04 | 2.94045 | 111.48612 | 30906 ft | 397 kts | 82° |
| 2026-04-24 02:04 | 2.94424 | 111.51321 | 30425 ft | 393 kts | 83° |
| 2026-04-24 02:05 | 2.94799 | 111.53998 | 29944 ft | 389 kts | 82° |
| 2026-04-24 02:05 | 2.95172 | 111.56667 | 29453 ft | 385 kts | 82° |
| 2026-04-24 02:05 | 2.95539 | 111.59299 | 28967 ft | 382 kts | 83° |
| 2026-04-24 02:05 | 2.95902 | 111.61915 | 28490 ft | 378 kts | 82° |
| 2026-04-24 02:06 | 2.96257 | 111.64479 | 28035 ft | 375 kts | 83° |
| 2026-04-24 02:06 | 2.96612 | 111.67051 | 27563 ft | 373 kts | 83° |
| 2026-04-24 02:06 | 2.96966 | 111.69600 | 27098 ft | 370 kts | 83° |
| 2026-04-24 02:06 | 2.97318 | 111.72126 | 26645 ft | 367 kts | 83° |
| 2026-04-24 02:07 | 2.97669 | 111.74650 | 26183 ft | 365 kts | 82° |
| 2026-04-24 02:07 | 2.98016 | 111.77148 | 25729 ft | 362 kts | 82° |
| 2026-04-24 02:07 | 2.98360 | 111.79617 | 25271 ft | 360 kts | 82° |
| 2026-04-24 02:07 | 2.98707 | 111.82101 | 24811 ft | 357 kts | 82° |
| 2026-04-24 02:08 | 2.99046 | 111.84532 | 24355 ft | 355 kts | 82° |
| 2026-04-24 02:08 | 2.99388 | 111.86976 | 23904 ft | 352 kts | 82° |
| 2026-04-24 02:08 | 2.99721 | 111.89364 | 23473 ft | 350 kts | 82° |
| 2026-04-24 02:08 | 3.00057 | 111.91773 | 23029 ft | 348 kts | 82° |
| 2026-04-24 02:09 | 3.00392 | 111.94171 | 22585 ft | 345 kts | 82° |
| 2026-04-24 02:09 | 3.00717 | 111.96503 | 22161 ft | 343 kts | 82° |
| 2026-04-24 02:09 | 3.01045 | 111.98859 | 21736 ft | 341 kts | 82° |
| 2026-04-24 02:09 | 3.01373 | 112.01210 | 21292 ft | 339 kts | 82° |
| 2026-04-24 02:10 | 3.01696 | 112.03517 | 20867 ft | 338 kts | 82° |
| 2026-04-24 02:10 | 3.02024 | 112.05849 | 20429 ft | 336 kts | 82° |
| 2026-04-24 02:10 | 3.02347 | 112.08149 | 20003 ft | 335 kts | 82° |
| 2026-04-24 02:10 | 3.02666 | 112.10422 | 19568 ft | 333 kts | 82° |
| 2026-04-24 02:11 | 3.02988 | 112.12729 | 19136 ft | 332 kts | 82° |
| 2026-04-24 02:11 | 3.03302 | 112.14992 | 18715 ft | 330 kts | 82° |
| 2026-04-24 02:11 | 3.03619 | 112.17267 | 18286 ft | 329 kts | 81° |
| 2026-04-24 02:11 | 3.03939 | 112.19516 | 17869 ft | 327 kts | 81° |
| 2026-04-24 02:12 | 3.04258 | 112.21740 | 17450 ft | 325 kts | 81° |
| 2026-04-24 02:12 | 3.04580 | 112.23990 | 17026 ft | 324 kts | 81° |
| 2026-04-24 02:12 | 3.04897 | 112.26202 | 16616 ft | 322 kts | 81° |
| 2026-04-24 02:12 | 3.05211 | 112.28404 | 16204 ft | 320 kts | 81° |
| 2026-04-24 02:13 | 3.05522 | 112.30602 | 15789 ft | 318 kts | 82° |
| 2026-04-24 02:13 | 3.05825 | 112.32765 | 15378 ft | 317 kts | 82° |
| 2026-04-24 02:13 | 3.06128 | 112.34935 | 14969 ft | 315 kts | 82° |
| 2026-04-24 02:13 | 3.06429 | 112.37098 | 14552 ft | 314 kts | 82° |
| 2026-04-24 02:14 | 3.06729 | 112.39261 | 14134 ft | 313 kts | 82° |
| 2026-04-24 02:14 | 3.07025 | 112.41399 | 13740 ft | 311 kts | 82° |
| 2026-04-24 02:14 | 3.07317 | 112.43523 | 13344 ft | 309 kts | 82° |
| 2026-04-24 02:14 | 3.07611 | 112.45649 | 12921 ft | 308 kts | 83° |
| 2026-04-24 02:15 | 3.07903 | 112.47753 | 12584 ft | 304 kts | 83° |
| 2026-04-24 02:15 | 3.08192 | 112.49852 | 12227 ft | 301 kts | 82° |
| 2026-04-24 02:15 | 3.08474 | 112.51902 | 11842 ft | 300 kts | 83° |
| 2026-04-24 02:15 | 3.08757 | 112.53969 | 11444 ft | 298 kts | 83° |
| 2026-04-24 02:16 | 3.09038 | 112.56019 | 11053 ft | 297 kts | 83° |
| 2026-04-24 02:16 | 3.09318 | 112.58034 | 10668 ft | 295 kts | 83° |
| 2026-04-24 02:16 | 3.09732 | 112.60036 | 10270 ft | 295 kts | 73° |
| 2026-04-24 02:16 | 3.10664 | 112.61851 | 9982 ft | 291 kts | 57° |
| 2026-04-24 02:17 | 3.11890 | 112.63422 | 9740 ft | 285 kts | 52° |
| 2026-04-24 02:17 | 3.13160 | 112.64951 | 9343 ft | 285 kts | 52° |
| 2026-04-24 02:17 | 3.14397 | 112.66481 | 8987 ft | 283 kts | 53° |
| 2026-04-24 02:17 | 3.15602 | 112.68031 | 8636 ft | 281 kts | 54° |
| 2026-04-24 02:18 | 3.16784 | 112.69588 | 8289 ft | 279 kts | 54° |
| 2026-04-24 02:18 | 3.17944 | 112.71130 | 7938 ft | 278 kts | 55° |
| 2026-04-24 02:18 | 3.19111 | 112.72688 | 7581 ft | 276 kts | 54° |
| 2026-04-24 02:18 | 3.20248 | 112.74202 | 7233 ft | 274 kts | 54° |
| 2026-04-24 02:19 | 3.21392 | 112.75723 | 6895 ft | 272 kts | 54° |
| 2026-04-24 02:19 | 3.22524 | 112.77235 | 6550 ft | 271 kts | 54° |
| 2026-04-24 02:19 | 3.23643 | 112.78746 | 6216 ft | 269 kts | 55° |
| 2026-04-24 02:19 | 3.24756 | 112.80246 | 5873 ft | 267 kts | 54° |
| 2026-04-24 02:20 | 3.25862 | 112.81728 | 5540 ft | 266 kts | 54° |
| 2026-04-24 02:20 | 3.26975 | 112.83209 | 5204 ft | 264 kts | 54° |
| 2026-04-24 02:20 | 3.28068 | 112.84663 | 4873 ft | 262 kts | 54° |
| 2026-04-24 02:20 | 3.29162 | 112.86118 | 4543 ft | 255 kts | 54° |
| 2026-04-24 02:21 | 3.30216 | 112.87507 | 4230 ft | 246 kts | 53° |
| 2026-04-24 02:21 | 3.31171 | 112.88862 | 3989 ft | 235 kts | 60° |
| 2026-04-24 02:21 | 3.31689 | 112.90381 | 3777 ft | 226 kts | 86° |
| 2026-04-24 02:21 | 3.31480 | 112.91888 | 3596 ft | 216 kts | 103° |
| 2026-04-24 02:22 | 3.31113 | 112.93319 | 3406 ft | 207 kts | 102° |
| 2026-04-24 02:22 | 3.30804 | 112.94699 | 3183 ft | 201 kts | 101° |
| 2026-04-24 02:22 | 3.30524 | 112.96059 | 2960 ft | 195 kts | 101° |
| 2026-04-24 02:22 | 3.30081 | 112.97308 | 2766 ft | 191 kts | 120° |
| 2026-04-24 02:23 | 3.29098 | 112.98183 | 2601 ft | 190 kts | 154° |
| 2026-04-24 02:23 | 3.27845 | 112.98575 | 2479 ft | 190 kts | 164° |
| 2026-04-24 02:23 | 3.26561 | 112.98886 | 2307 ft | 184 kts | 165° |
| 2026-04-24 02:23 | 3.25323 | 112.99170 | 2129 ft | 181 kts | 166° |
| 2026-04-24 02:24 | 3.24087 | 112.99437 | 1963 ft | 181 kts | 166° |
| 2026-04-24 02:24 | 3.22857 | 112.99700 | 1822 ft | 178 kts | 165° |
| 2026-04-24 02:24 | 3.21652 | 112.99966 | 1612 ft | 177 kts | 165° |
| 2026-04-24 02:24 | 3.20443 | 113.00230 | 1385 ft | 177 kts | 166° |
| 2026-04-24 02:25 | 3.19234 | 113.00491 | 1166 ft | 177 kts | 166° |
| 2026-04-24 02:25 | 3.18025 | 113.00756 | 930 ft | 175 kts | 165° |
| 2026-04-24 02:25 | 3.16859 | 113.01011 | 744 ft | 162 kts | 166° |
| 2026-04-24 02:25 | 3.15807 | 113.01239 | 509 ft | 151 kts | 166° |
| 2026-04-24 02:26 | 3.14787 | 113.01460 | 350 ft | 148 kts | 167° |
| 2026-04-24 02:26 | 3.13758 | 113.01678 | 162 ft | 151 kts | 166° |
| 2026-04-24 02:26 | 3.12766 | 113.01901 | 108 ft | 137 kts | 167° |
| 2026-04-24 02:26 | 3.12045 | 113.02055 | 113 ft | 68 kts | 166° |
| 2026-04-24 02:27 | 3.11666 | 113.02133 | 128 ft | 56 kts | 166° |
| 2026-04-24 02:27 | 3.11439 | 113.02171 | 135 ft | 16 kts | 164° |
| 2026-04-24 02:27 | 3.11475 | 113.02183 | 135 ft | 15 kts | 333° |
| 2026-04-24 02:27 | 3.11618 | 113.02142 | 130 ft | 26 kts | 347° |
| 2026-04-24 02:28 | 3.11811 | 113.02099 | 117 ft | 23 kts | 352° |
| 2026-04-24 02:28 | 3.11943 | 113.02084 | 115 ft | 11 kts | 4° |
| 2026-04-24 02:28 | 3.11996 | 113.02122 | 118 ft | 9 kts | 63° |
| 2026-04-24 02:28 | 3.12017 | 113.02183 | 122 ft | 7 kts | 75° |
| 2026-04-24 02:29 | 3.12057 | 113.02220 | 124 ft | 12 kts | 8° |
| 2026-04-24 02:29 | 3.12153 | 113.02208 | 125 ft | 14 kts | 349° |
| 2026-04-24 02:29 | 3.12248 | 113.02226 | 129 ft | 13 kts | 43° |
| 2026-04-24 02:29 | 3.12310 | 113.02270 | 133 ft | 8 kts | 58° |
| 2026-04-24 02:30 | 3.12321 | 113.02299 | 135 ft | 0 kts | 75° |
| 2026-04-24 02:30 | 3.12323 | 113.02309 | 135 ft | 0 kts | 78° |
| 2026-04-24 02:30 | 3.12325 | 113.02316 | 135 ft | 2 kts | 77° |
| 2026-04-24 02:30 | 3.12325 | 113.02318 | 136 ft | 0 kts | 77° |